Time;durP1;ratioP1;P1;durP2;ratioP2;P2;SDS_P1;SDS_P2;PMS_P1;PMS_P2;Temp;Humidity;BMP_temperature;BMP_pressure;BME280_temperature;BME280_humidity;BME280_pressure;Samples;Min_cycle;Max_cycle;Signal;HPM_P1;HPM_P2
2021/03/03 00:02:23;;;;;;;29.05;14.52;;;7.00;99.90;;;;;;5101118;28;20036;-85
2021/03/03 00:04:48;;;;;;;28.55;13.88;;;7.00;99.90;;;;;;5082287;28;20024;-84
2021/03/03 00:07:15;;;;;;;29.98;14.32;;;6.90;99.90;;;;;;5083603;28;20051;-82
2021/03/03 00:09:41;;;;;;;35.15;14.60;;;6.90;99.90;;;;;;5090857;28;20008;-85
2021/03/03 00:12:08;;;;;;;37.97;14.70;;;6.90;99.90;;;;;;5084264;28;20050;-85
2021/03/03 00:14:34;;;;;;;37.75;14.65;;;6.90;99.90;;;;;;5086416;28;20033;-83
2021/03/03 00:16:59;;;;;;;27.42;13.90;;;6.90;99.90;;;;;;5097538;28;20047;-86
2021/03/03 00:19:25;;;;;;;32.92;14.55;;;6.80;99.90;;;;;;5084606;28;20035;-85
2021/03/03 00:21:51;;;;;;;30.15;13.95;;;6.70;99.90;;;;;;5083480;28;20043;-82
2021/03/03 00:24:16;;;;;;;30.15;14.55;;;6.70;99.90;;;;;;5088553;28;20019;-85
2021/03/03 00:26:42;;;;;;;30.92;14.60;;;6.60;99.90;;;;;;5092058;28;20122;-85
2021/03/03 00:29:07;;;;;;;34.67;15.32;;;6.60;99.90;;;;;;5091232;28;20042;-84
2021/03/03 00:31:33;;;;;;;40.42;14.98;;;6.50;99.90;;;;;;5100015;28;20052;-85
2021/03/03 00:33:58;;;;;;;30.60;14.85;;;6.40;99.90;;;;;;5092094;28;20069;-83
2021/03/03 00:36:24;;;;;;;29.92;14.30;;;6.40;99.90;;;;;;5083367;28;20161;-83
2021/03/03 00:38:50;;;;;;;36.65;16.38;;;6.50;99.90;;;;;;5083756;28;20025;-84
2021/03/03 00:41:15;;;;;;;34.58;14.55;;;6.40;99.90;;;;;;5083903;28;20024;-85
2021/03/03 00:43:41;;;;;;;33.75;14.55;;;6.40;99.90;;;;;;5092626;28;20039;-85
2021/03/03 00:46:06;;;;;;;36.22;14.70;;;6.40;99.90;;;;;;5104987;28;20024;-83
2021/03/03 00:48:32;;;;;;;31.83;14.50;;;6.30;99.90;;;;;;5082429;28;20004;-85
2021/03/03 00:50:58;;;;;;;39.42;14.68;;;6.30;99.90;;;;;;5102912;28;20020;-83
2021/03/03 00:53:23;;;;;;;33.63;15.35;;;6.20;99.90;;;;;;5083693;28;20024;-83
2021/03/03 00:55:50;;;;;;;32.65;14.30;;;6.20;99.90;;;;;;5082923;28;20020;-82
2021/03/03 00:58:16;;;;;;;31.60;14.63;;;6.10;99.90;;;;;;5083912;28;20055;-85
2021/03/03 01:00:41;;;;;;;32.30;13.65;;;6.20;99.90;;;;;;5086878;28;20058;-84
2021/03/03 01:03:07;;;;;;;32.25;14.50;;;6.10;99.90;;;;;;5086085;28;20086;-85
2021/03/03 01:05:33;;;;;;;36.72;15.77;;;6.20;99.90;;;;;;5082773;28;20020;-85
2021/03/03 01:07:58;;;;;;;33.28;14.27;;;6.10;99.90;;;;;;5082694;28;20473;-85
2021/03/03 01:10:24;;;;;;;29.50;14.45;;;6.10;99.90;;;;;;5084978;28;20381;-83
2021/03/03 01:12:49;;;;;;;27.83;13.60;;;6.00;99.90;;;;;;5101483;28;20024;-83
2021/03/03 01:15:15;;;;;;;32.70;13.80;;;6.00;99.90;;;;;;5101065;28;20065;-84
2021/03/03 01:17:41;;;;;;;30.35;14.95;;;5.90;99.90;;;;;;5081506;28;20028;-82
2021/03/03 01:20:07;;;;;;;28.92;14.45;;;5.90;99.90;;;;;;5095913;28;20027;-84
2021/03/03 01:22:33;;;;;;;37.85;15.68;;;5.90;99.90;;;;;;5083158;28;20101;-84
2021/03/03 01:24:58;;;;;;;34.35;15.68;;;5.80;99.90;;;;;;5091592;28;20388;-83
2021/03/03 01:27:24;;;;;;;30.63;14.13;;;5.80;99.90;;;;;;5080049;28;20024;-81
2021/03/03 01:29:50;;;;;;;37.22;15.60;;;5.70;99.90;;;;;;5083621;28;20110;-83
2021/03/03 01:32:15;;;;;;;30.90;13.65;;;5.70;99.90;;;;;;5089085;28;20032;-83
2021/03/03 01:34:41;;;;;;;33.72;15.02;;;5.70;99.90;;;;;;5081325;28;20036;-84
2021/03/03 01:37:06;;;;;;;32.00;14.38;;;5.50;99.90;;;;;;5081731;28;20028;-83
2021/03/03 01:39:32;;;;;;;32.40;15.43;;;5.60;99.90;;;;;;5078753;28;20052;-82
2021/03/03 01:41:57;;;;;;;40.03;15.60;;;5.50;99.90;;;;;;5069657;28;20050;-85
2021/03/03 01:44:23;;;;;;;39.47;14.98;;;5.50;99.90;;;;;;5080768;28;20037;-84
2021/03/03 01:46:48;;;;;;;36.28;13.68;;;5.50;99.90;;;;;;5079553;28;20374;-81
2021/03/03 01:49:14;;;;;;;33.85;15.57;;;5.60;99.90;;;;;;5102727;28;20020;-84
2021/03/03 01:51:40;;;;;;;32.58;15.30;;;5.60;99.90;;;;;;5092779;28;20034;-84
2021/03/03 01:54:07;;;;;;;27.42;13.55;;;5.70;99.90;;;;;;5069771;28;20031;-81
2021/03/03 01:56:33;;;;;;;33.63;14.77;;;5.70;99.90;;;;;;5081364;28;20874;-80
2021/03/03 01:58:59;;;;;;;37.38;16.67;;;5.80;99.90;;;;;;5100423;28;20028;-85
2021/03/03 02:01:25;;;;;;;36.15;15.75;;;5.90;99.90;;;;;;5088171;28;20057;-85
2021/03/03 02:03:50;;;;;;;33.92;15.20;;;5.90;99.90;;;;;;5105409;28;20059;-83
2021/03/03 02:06:26;;;;;;;30.67;14.25;;;5.90;99.90;;;;;;5086098;28;20024;-82
2021/03/03 02:09:02;;;;;;;36.10;15.77;;;5.90;99.90;;;;;;5111119;28;20023;-84
2021/03/03 02:11:47;;;;;;;31.45;14.88;;;6.00;99.90;;;;;;5087416;28;20062;-83
2021/03/03 02:14:19;;;;;;;30.45;13.75;;;6.10;99.90;;;;;;5090359;28;20059;-85
2021/03/03 02:16:46;;;;;;;31.52;14.40;;;6.10;99.90;;;;;;5081555;28;20035;-84
2021/03/03 02:19:18;;;;;;;43.47;16.50;;;6.10;99.90;;;;;;5093749;28;20024;-84
2021/03/03 02:21:49;;;;;;;34.20;15.40;;;6.20;99.90;;;;;;5109424;28;20027;-83
2021/03/03 02:24:27;;;;;;;34.78;15.25;;;6.20;99.90;;;;;;5086422;28;20047;-81
2021/03/03 02:26:56;;;;;;;39.80;16.05;;;6.10;99.90;;;;;;5082814;28;20512;-83
2021/03/03 02:29:25;;;;;;;39.20;14.77;;;6.00;99.90;;;;;;5094733;28;20020;-81
2021/03/03 02:31:51;;;;;;;33.58;15.20;;;6.00;99.90;;;;;;5112923;28;20226;-83
2021/03/03 02:34:20;;;;;;;29.50;13.90;;;6.00;99.90;;;;;;5085557;28;20024;-84
2021/03/03 02:36:50;;;;;;;37.22;16.67;;;5.90;99.90;;;;;;5082581;28;20027;-85
2021/03/03 02:39:17;;;;;;;34.95;16.70;;;6.00;99.90;;;;;;5086483;28;20091;-83
2021/03/03 02:41:45;;;;;;;33.00;14.95;;;6.00;99.90;;;;;;5104090;28;20008;-85
2021/03/03 02:44:12;;;;;;;36.80;15.50;;;5.90;99.90;;;;;;5087756;28;20412;-83
2021/03/03 02:46:43;;;;;;;37.05;15.65;;;6.00;99.90;;;;;;5093344;28;20115;-85
2021/03/03 02:49:09;;;;;;;41.55;15.93;;;6.00;99.90;;;;;;5084567;28;20031;-85
2021/03/03 02:51:35;;;;;;;35.55;16.25;;;6.00;99.90;;;;;;5079741;28;20023;-84
2021/03/03 02:54:00;;;;;;;36.50;17.27;;;6.10;99.90;;;;;;5114319;28;20665;-84
2021/03/03 02:56:28;;;;;;;39.35;16.33;;;6.10;99.90;;;;;;5112349;28;20038;-85
2021/03/03 02:58:54;;;;;;;42.33;16.63;;;6.10;99.90;;;;;;5085712;28;20028;-83
2021/03/03 03:01:21;;;;;;;38.08;15.80;;;6.20;99.90;;;;;;5097958;28;20028;-83
2021/03/03 03:04:02;;;;;;;32.08;16.23;;;6.10;99.90;;;;;;5105503;28;20069;-83
2021/03/03 03:06:32;;;;;;;40.72;17.20;;;6.10;99.90;;;;;;5097762;28;20545;-85
2021/03/03 03:09:02;;;;;;;35.50;16.10;;;6.00;99.90;;;;;;5097317;28;20012;-85
2021/03/03 03:11:30;;;;;;;42.72;17.80;;;5.90;99.90;;;;;;5085325;28;20020;-83
2021/03/03 03:14:04;;;;;;;42.45;16.73;;;5.90;99.90;;;;;;5090219;28;20036;-86
2021/03/03 03:16:31;;;;;;;42.75;18.00;;;5.90;99.90;;;;;;5114718;28;20015;-85
2021/03/03 03:18:59;;;;;;;38.70;18.42;;;5.90;99.90;;;;;;5096222;28;20028;-82
2021/03/03 03:21:27;;;;;;;36.58;17.15;;;6.00;99.90;;;;;;5086238;28;20028;-83
2021/03/03 03:23:54;;;;;;;36.95;17.08;;;6.00;99.90;;;;;;5116407;28;20027;-84
2021/03/03 03:26:23;;;;;;;34.53;16.55;;;6.00;99.90;;;;;;5088450;28;20028;-83
2021/03/03 03:28:48;;;;;;;43.83;19.08;;;6.00;99.90;;;;;;5099163;28;20461;-85
2021/03/03 03:31:15;;;;;;;39.33;16.15;;;6.10;99.90;;;;;;5098292;28;20030;-83
2021/03/03 03:33:41;;;;;;;39.20;16.75;;;6.10;99.90;;;;;;5108545;28;20039;-85
2021/03/03 03:36:07;;;;;;;39.08;17.73;;;6.10;99.90;;;;;;5118081;28;20015;-83
2021/03/03 03:38:34;;;;;;;44.05;17.60;;;6.20;99.90;;;;;;5091473;28;20028;-86
2021/03/03 03:41:02;;;;;;;41.25;18.05;;;6.20;99.90;;;;;;5102083;28;20496;-85
2021/03/03 03:43:28;;;;;;;37.65;17.67;;;6.20;99.90;;;;;;5089876;28;20059;-85
2021/03/03 03:45:55;;;;;;;41.88;16.88;;;6.20;99.90;;;;;;5117140;28;20271;-86
2021/03/03 03:48:22;;;;;;;38.15;17.35;;;6.20;99.90;;;;;;5113774;28;20464;-83
2021/03/03 03:50:48;;;;;;;45.78;18.25;;;6.20;99.90;;;;;;5123759;28;20020;-85
2021/03/03 03:53:14;;;;;;;41.28;17.02;;;6.20;99.90;;;;;;5088701;28;20035;-84
2021/03/03 03:55:40;;;;;;;40.80;16.45;;;6.20;99.90;;;;;;5084033;28;20058;-85
2021/03/03 03:58:07;;;;;;;40.80;17.40;;;6.20;99.90;;;;;;5082965;28;20032;-84
2021/03/03 04:00:33;;;;;;;38.42;16.60;;;6.20;99.90;;;;;;5101335;28;20023;-86
2021/03/03 04:03:00;;;;;;;37.75;17.90;;;6.20;99.90;;;;;;5094383;28;20424;-83
2021/03/03 04:05:27;;;;;;;39.83;17.55;;;6.30;99.90;;;;;;5076345;28;20088;-84
2021/03/03 04:07:54;;;;;;;37.80;17.45;;;6.30;99.90;;;;;;5106205;28;20031;-86
2021/03/03 04:10:26;;;;;;;41.58;17.70;;;6.30;99.90;;;;;;5093175;28;20024;-83
2021/03/03 04:12:52;;;;;;;41.97;17.90;;;6.30;99.90;;;;;;5103962;28;20020;-82
2021/03/03 04:15:18;;;;;;;42.63;18.85;;;6.20;99.90;;;;;;5092443;28;20429;-83
2021/03/03 04:17:44;;;;;;;45.60;17.83;;;6.20;99.90;;;;;;5082816;28;20039;-85
2021/03/03 04:20:10;;;;;;;37.67;16.80;;;6.20;99.90;;;;;;5083952;28;20056;-84
2021/03/03 04:22:38;;;;;;;37.17;17.63;;;6.20;99.90;;;;;;5090247;28;20032;-82
2021/03/03 04:25:06;;;;;;;38.70;17.17;;;6.20;99.90;;;;;;5105555;28;20095;-81
2021/03/03 04:27:32;;;;;;;51.92;16.58;;;6.10;99.90;;;;;;5100277;28;20020;-82
2021/03/03 04:29:57;;;;;;;44.83;18.15;;;6.20;99.90;;;;;;5096989;28;20087;-84
2021/03/03 04:32:23;;;;;;;40.80;18.52;;;6.20;99.90;;;;;;5083046;28;20031;-84
2021/03/03 04:34:49;;;;;;;43.10;17.67;;;6.10;99.90;;;;;;5082979;28;20095;-86
2021/03/03 04:37:14;;;;;;;41.45;19.65;;;6.20;99.90;;;;;;5083399;28;20023;-85
2021/03/03 04:39:40;;;;;;;41.72;18.77;;;6.20;99.90;;;;;;5083428;28;20028;-82
2021/03/03 04:42:06;;;;;;;41.67;18.20;;;6.30;99.90;;;;;;5092656;28;20079;-84
2021/03/03 04:44:32;;;;;;;39.30;17.35;;;6.30;99.90;;;;;;5092489;28;20028;-85
2021/03/03 04:46:58;;;;;;;40.33;18.45;;;6.30;99.90;;;;;;5099747;28;20027;-82
2021/03/03 04:49:25;;;;;;;41.80;16.70;;;6.30;99.90;;;;;;5086939;28;20024;-86
2021/03/03 04:51:50;;;;;;;41.63;18.40;;;6.30;99.90;;;;;;5084948;28;20024;-85
2021/03/03 04:54:16;;;;;;;38.60;16.45;;;6.30;99.90;;;;;;5088545;28;20034;-86
2021/03/03 04:56:41;;;;;;;32.95;16.95;;;6.30;99.90;;;;;;5089460;28;20036;-81
2021/03/03 04:59:07;;;;;;;42.50;18.27;;;6.30;99.90;;;;;;5090792;28;20034;-86
2021/03/03 05:01:33;;;;;;;44.63;16.92;;;6.30;99.90;;;;;;5117699;28;20396;-86
2021/03/03 05:03:59;;;;;;;40.28;18.33;;;6.30;99.90;;;;;;5064947;28;20056;-83
2021/03/03 05:06:25;;;;;;;48.75;18.55;;;6.30;99.90;;;;;;5095596;28;20026;-82
2021/03/03 05:08:51;;;;;;;48.08;17.48;;;6.20;99.90;;;;;;5073199;28;20111;-86
2021/03/03 05:11:17;;;;;;;43.33;17.70;;;6.20;99.90;;;;;;5110272;28;20024;-85
2021/03/03 05:13:42;;;;;;;40.17;17.52;;;6.30;99.90;;;;;;5082960;28;20020;-83
2021/03/03 05:16:08;;;;;;;40.05;17.75;;;6.20;99.90;;;;;;5084434;28;20023;-83
2021/03/03 05:18:33;;;;;;;40.35;18.13;;;6.30;99.90;;;;;;5093865;28;20055;-85
2021/03/03 05:20:59;;;;;;;41.83;16.73;;;6.20;99.90;;;;;;5098585;28;20028;-85
2021/03/03 05:23:33;;;;;;;42.25;17.65;;;6.20;99.90;;;;;;5107261;28;20027;-86
2021/03/03 05:26:00;;;;;;;43.50;17.73;;;6.20;99.90;;;;;;5083417;28;20020;-85
2021/03/03 05:28:26;;;;;;;50.88;17.23;;;6.30;99.90;;;;;;5102227;28;20360;-84
2021/03/03 05:30:52;;;;;;;43.28;18.08;;;6.20;99.90;;;;;;5086859;28;20370;-84
2021/03/03 05:33:30;;;;;;;48.97;18.60;;;6.30;99.90;;;;;;5108192;28;20039;-82
2021/03/03 05:35:59;;;;;;;42.20;19.23;;;6.20;99.90;;;;;;5062775;28;20063;-84
2021/03/03 05:38:24;;;;;;;40.25;17.20;;;6.30;99.90;;;;;;5091618;28;20020;-83
2021/03/03 05:40:52;;;;;;;42.80;17.55;;;6.30;99.90;;;;;;5101022;28;20168;-82
2021/03/03 05:43:18;;;;;;;42.65;19.67;;;6.20;99.90;;;;;;5086464;28;20028;-83
2021/03/03 05:45:45;;;;;;;42.47;18.25;;;6.20;99.90;;;;;;5114866;28;20083;-85
2021/03/03 05:48:15;;;;;;;38.35;19.70;;;6.20;99.90;;;;;;5090993;28;20095;-83
2021/03/03 05:50:45;;;;;;;40.67;17.92;;;6.20;99.90;;;;;;5112544;28;20388;-85
2021/03/03 05:53:13;;;;;;;49.85;18.13;;;6.20;99.90;;;;;;5094131;28;20543;-85
2021/03/03 05:55:38;;;;;;;46.47;17.92;;;6.20;99.90;;;;;;5082058;28;20020;-84
2021/03/03 05:58:04;;;;;;;44.28;17.88;;;6.20;99.90;;;;;;5077199;28;20526;-83
2021/03/03 06:00:30;;;;;;;44.38;17.90;;;6.20;99.90;;;;;;5089128;28;20032;-83
2021/03/03 06:02:57;;;;;;;50.65;19.33;;;6.10;99.90;;;;;;5086929;28;20032;-85
2021/03/03 06:05:22;;;;;;;41.35;18.25;;;6.10;99.90;;;;;;5085708;28;20063;-83
2021/03/03 06:07:49;;;;;;;46.30;18.25;;;6.10;99.90;;;;;;5089700;28;20031;-86
2021/03/03 06:10:15;;;;;;;42.50;18.20;;;6.00;99.90;;;;;;5089604;28;20036;-85
2021/03/03 06:12:41;;;;;;;41.13;18.35;;;6.00;99.90;;;;;;5100799;28;20155;-85
2021/03/03 06:15:07;;;;;;;43.20;18.45;;;6.10;99.90;;;;;;5086798;28;20480;-82
2021/03/03 06:17:33;;;;;;;43.20;17.77;;;6.00;99.90;;;;;;5106668;28;20044;-83
2021/03/03 06:20:01;;;;;;;45.85;20.05;;;6.00;99.90;;;;;;5088479;28;20024;-82
2021/03/03 06:22:28;;;;;;;45.60;19.00;;;5.90;99.90;;;;;;5100653;28;20027;-82
2021/03/03 06:24:55;;;;;;;42.13;17.85;;;5.90;99.90;;;;;;5108083;28;20110;-83
2021/03/03 06:27:22;;;;;;;44.85;18.95;;;5.90;99.90;;;;;;5075225;28;20021;-82
2021/03/03 06:30:07;;;;;;;44.13;19.98;;;6.00;99.90;;;;;;5110612;28;20010;-80
2021/03/03 06:32:52;;;;;;;34.92;17.23;;;5.90;99.90;;;;;;5087270;28;20111;-83
2021/03/03 06:35:32;;;;;;;40.83;17.88;;;5.90;99.90;;;;;;5073370;28;20087;-83
2021/03/03 06:37:57;;;;;;;42.08;18.52;;;5.90;99.90;;;;;;5093615;28;20040;-84
2021/03/03 06:40:24;;;;;;;44.58;18.52;;;5.90;99.90;;;;;;5094729;28;20005;-83
2021/03/03 06:42:49;;;;;;;51.22;19.63;;;5.90;99.90;;;;;;5072763;28;20388;-81
2021/03/03 06:45:30;;;;;;;42.97;19.02;;;5.90;99.90;;;;;;5102697;28;20020;-83
2021/03/03 06:47:56;;;;;;;45.22;18.00;;;5.90;99.90;;;;;;5082132;28;20020;-84
2021/03/03 06:50:31;;;;;;;43.85;18.90;;;5.90;99.90;;;;;;5086569;28;20021;-81
2021/03/03 06:52:57;;;;;;;38.33;16.83;;;5.80;99.90;;;;;;5123266;28;20079;-82
2021/03/03 06:55:23;;;;;;;41.97;17.73;;;5.70;99.90;;;;;;5086205;28;20061;-85
2021/03/03 06:57:48;;;;;;;46.95;19.48;;;5.70;99.90;;;;;;5094464;28;20024;-84
2021/03/03 07:00:14;;;;;;;41.00;18.65;;;5.70;99.90;;;;;;5107965;28;20030;-82
2021/03/03 07:02:43;;;;;;;47.38;19.42;;;5.60;99.90;;;;;;5090067;28;20169;-83
2021/03/03 07:05:10;;;;;;;50.83;19.63;;;5.60;99.90;;;;;;5115950;28;20024;-84
2021/03/03 07:07:36;;;;;;;37.38;17.67;;;5.60;99.90;;;;;;5087514;28;20527;-82
2021/03/03 07:10:04;;;;;;;46.97;19.20;;;5.70;99.90;;;;;;5103102;28;20035;-83
2021/03/03 07:12:32;;;;;;;45.08;18.73;;;5.80;99.90;;;;;;5086073;28;20020;-83
2021/03/03 07:15:03;;;;;;;53.55;19.10;;;5.80;99.90;;;;;;5085047;28;20389;-83
2021/03/03 07:17:36;;;;;;;50.20;20.75;;;5.80;99.90;;;;;;5094940;28;20098;-85
2021/03/03 07:20:26;;;;;;;43.33;20.17;;;5.90;99.90;;;;;;5093461;28;20024;-83
2021/03/03 07:23:18;;;;;;;;;;;;;;;;;;;;;
2021/03/03 07:25:45;;;;;;;46.08;19.42;;;6.10;99.90;;;;;;5122121;22;20128;-57
2021/03/03 07:28:12;;;;;;;52.38;20.92;;;6.20;99.90;;;;;;5073587;28;20043;-56
2021/03/03 07:30:38;;;;;;;48.78;19.63;;;6.30;99.90;;;;;;5065589;28;20028;-57
2021/03/03 07:33:04;;;;;;;44.83;18.80;;;6.40;99.90;;;;;;5071345;28;20028;-54
2021/03/03 07:35:30;;;;;;;36.45;17.70;;;6.50;99.90;;;;;;5063978;28;20028;-55
2021/03/03 07:37:57;;;;;;;48.97;20.38;;;6.60;99.90;;;;;;5056623;28;20142;-56
2021/03/03 07:40:30;;;;;;;52.05;19.75;;;6.70;99.90;;;;;;5060103;28;20032;-55
2021/03/03 07:43:00;;;;;;;39.35;17.73;;;6.80;99.90;;;;;;5051677;28;20338;-58
2021/03/03 07:45:39;;;;;;;50.10;20.60;;;6.90;99.90;;;;;;5062699;28;20024;-55
2021/03/03 07:48:07;;;;;;;51.40;21.20;;;7.00;99.90;;;;;;5053236;28;20032;-57
2021/03/03 07:50:34;;;;;;;45.17;20.20;;;7.00;99.90;;;;;;5061222;28;20047;-56
2021/03/03 07:52:59;;;;;;;44.67;19.92;;;7.00;99.90;;;;;;5061415;28;20577;-56
2021/03/03 07:55:26;;;;;;;43.42;20.27;;;7.10;99.90;;;;;;5061217;28;20447;-56
2021/03/03 07:57:54;;;;;;;44.17;19.50;;;7.10;99.90;;;;;;5051672;28;20029;-57
2021/03/03 08:00:22;;;;;;;46.28;20.65;;;7.10;99.90;;;;;;5051824;28;20044;-57
2021/03/03 08:02:50;;;;;;;42.90;18.77;;;7.20;99.90;;;;;;5052253;28;20079;-54
2021/03/03 08:05:30;;;;;;;39.47;17.95;;;7.30;99.90;;;;;;5054780;28;20078;-55
2021/03/03 08:08:29;;;;;;;46.75;19.27;;;7.30;99.90;;;;;;5052207;28;20059;-56
2021/03/03 08:10:57;;;;;;;49.60;20.77;;;7.40;99.90;;;;;;5053103;28;20129;-57
2021/03/03 08:13:34;;;;;;;45.05;19.80;;;7.40;99.90;;;;;;5058026;28;20028;-56
2021/03/03 08:16:02;;;;;;;39.17;18.52;;;7.50;99.90;;;;;;5049922;28;20485;-55
2021/03/03 08:18:29;;;;;;;47.47;19.67;;;7.60;99.90;;;;;;5048226;28;20037;-58
2021/03/03 08:21:21;;;;;;;48.38;20.70;;;7.60;99.90;;;;;;5050196;28;20041;-58
2021/03/03 08:23:53;;;;;;;52.53;21.20;;;7.70;99.90;;;;;;5052740;28;20072;-59
2021/03/03 08:26:21;;;;;;;45.25;21.30;;;7.80;99.90;;;;;;5054059;28;20051;-56
2021/03/03 08:28:54;;;;;;;49.25;19.83;;;7.80;99.90;;;;;;5056355;28;20092;-57
2021/03/03 08:31:24;;;;;;;44.33;19.17;;;7.90;99.90;;;;;;5052442;28;20029;-59
2021/03/03 08:33:51;;;;;;;49.85;20.48;;;8.00;99.90;;;;;;5061226;28;20029;-58
2021/03/03 08:36:27;;;;;;;44.42;21.13;;;8.10;99.90;;;;;;5051083;28;20025;-56
2021/03/03 08:38:56;;;;;;;46.05;21.80;;;8.20;99.90;;;;;;5055275;28;20112;-57
2021/03/03 08:41:28;;;;;;;45.95;21.27;;;8.30;99.90;;;;;;5054426;28;20083;-55
2021/03/03 08:44:10;;;;;;;46.67;20.23;;;8.40;99.90;;;;;;5047008;28;20017;-53
2021/03/03 08:46:39;;;;;;;45.45;20.83;;;8.50;99.90;;;;;;5048083;28;20036;-56
2021/03/03 08:49:05;;;;;;;53.78;21.42;;;8.60;99.90;;;;;;5058936;28;20017;-55
2021/03/03 08:51:34;;;;;;;37.35;19.05;;;8.60;99.90;;;;;;5053264;28;20040;-55
2021/03/03 08:54:15;;;;;;;51.88;21.40;;;8.80;99.90;;;;;;5051296;28;20031;-57
2021/03/03 08:56:45;;;;;;;47.70;19.92;;;8.90;99.90;;;;;;5052797;28;20074;-55
2021/03/03 08:59:29;;;;;;;49.15;20.50;;;9.00;99.90;;;;;;5053643;28;20028;-57
2021/03/03 09:02:17;;;;;;;41.53;19.70;;;9.10;99.90;;;;;;5056949;28;20116;-55
2021/03/03 09:04:55;;;;;;;45.13;19.83;;;9.20;99.90;;;;;;5050744;28;20290;-56
2021/03/03 09:07:29;;;;;;;40.35;20.55;;;9.30;99.90;;;;;;5054233;28;20036;-57
2021/03/03 09:09:58;;;;;;;39.35;19.40;;;9.40;99.90;;;;;;5056191;28;20433;-56
2021/03/03 09:12:33;;;;;;;41.65;18.83;;;9.50;99.90;;;;;;5055354;28;20104;-54
2021/03/03 09:15:02;;;;;;;47.10;21.95;;;9.60;99.90;;;;;;5052156;28;20432;-57
2021/03/03 09:17:30;;;;;;;46.10;20.25;;;9.80;99.90;;;;;;5060557;28;20029;-56
2021/03/03 09:19:59;;;;;;;46.90;20.65;;;9.90;99.90;;;;;;5050983;28;20443;-56
2021/03/03 09:22:24;;;;;;;48.28;19.85;;;10.00;99.90;;;;;;5050858;28;20025;-57
2021/03/03 09:24:52;;;;;;;46.80;19.83;;;10.00;99.90;;;;;;5049570;28;20064;-57
2021/03/03 09:27:20;;;;;;;42.47;19.00;;;10.20;99.90;;;;;;5057906;28;20517;-53
2021/03/03 09:29:48;;;;;;;44.72;20.42;;;10.30;99.90;;;;;;5058495;28;20028;-54
2021/03/03 09:32:22;;;;;;;41.42;20.33;;;10.40;99.90;;;;;;5056891;28;20035;-57
2021/03/03 09:34:48;;;;;;;44.47;18.90;;;10.50;99.90;;;;;;5056362;28;20241;-55
2021/03/03 09:37:15;;;;;;;44.75;19.08;;;10.60;99.90;;;;;;5055001;28;20080;-56
2021/03/03 09:39:41;;;;;;;40.22;18.73;;;10.70;99.90;;;;;;5057073;28;20029;-56
2021/03/03 09:42:09;;;;;;;43.70;20.08;;;10.80;99.90;;;;;;5053116;28;20516;-54
2021/03/03 09:44:59;;;;;;;43.63;20.50;;;11.00;99.90;;;;;;5061211;28;20029;-55
2021/03/03 09:47:30;;;;;;;40.20;20.10;;;11.20;99.90;;;;;;5056915;28;20102;-57
2021/03/03 09:49:57;;;;;;;46.15;20.35;;;11.40;99.90;;;;;;5055289;28;20106;-56
2021/03/03 09:52:31;;;;;;;41.35;19.75;;;11.50;99.90;;;;;;5062844;28;20121;-57
2021/03/03 09:54:57;;;;;;;45.65;18.88;;;11.60;99.90;;;;;;5055464;28;20092;-55
2021/03/03 09:57:23;;;;;;;40.55;18.98;;;11.80;99.90;;;;;;5056088;28;20436;-56
2021/03/03 09:59:53;;;;;;;43.47;19.85;;;11.90;99.90;;;;;;5058705;28;20021;-54
2021/03/03 10:02:21;;;;;;;42.63;20.10;;;12.10;99.90;;;;;;5049668;28;20104;-56
2021/03/03 10:04:47;;;;;;;43.50;20.48;;;12.30;99.90;;;;;;5052020;28;20497;-56
2021/03/03 10:07:24;;;;;;;36.00;18.58;;;12.40;99.90;;;;;;5054245;28;20028;-58
2021/03/03 10:09:53;;;;;;;39.67;19.55;;;12.60;99.90;;;;;;5054134;28;20025;-55
2021/03/03 10:12:24;;;;;;;42.95;19.63;;;12.70;99.90;;;;;;5055416;28;20108;-56
2021/03/03 10:15:10;;;;;;;40.10;18.65;;;12.80;99.90;;;;;;5050806;28;21230;-56
2021/03/03 10:17:43;;;;;;;41.58;20.42;;;12.90;99.90;;;;;;5061692;28;20037;-55
2021/03/03 10:20:36;;;;;;;53.35;20.38;;;13.00;99.90;;;;;;5054147;28;20112;-56
2021/03/03 10:23:10;;;;;;;41.25;19.77;;;13.10;99.90;;;;;;5053350;28;20059;-57
2021/03/03 10:25:35;;;;;;;46.45;20.52;;;13.00;99.90;;;;;;5057607;28;20054;-56
2021/03/03 10:28:22;;;;;;;55.28;20.50;;;13.10;99.90;;;;;;5059558;28;20476;-58
2021/03/03 10:30:50;;;;;;;45.75;19.75;;;13.10;99.90;;;;;;5055785;28;20017;-58
2021/03/03 10:33:25;;;;;;;50.33;20.58;;;13.20;99.90;;;;;;5057352;28;20431;-57
2021/03/03 10:35:51;;;;;;;40.25;20.00;;;13.40;99.90;;;;;;5054188;28;20037;-56
2021/03/03 10:38:20;;;;;;;45.28;19.20;;;13.60;99.90;;;;;;5058893;28;20029;-56
2021/03/03 10:40:48;;;;;;;46.13;20.20;;;13.70;99.90;;;;;;5060432;28;20029;-56
2021/03/03 10:43:18;;;;;;;46.55;19.45;;;13.80;99.90;;;;;;5056179;28;20029;-57
2021/03/03 10:45:45;;;;;;;51.25;20.95;;;13.90;99.90;;;;;;5054755;28;20028;-57
2021/03/03 10:48:30;;;;;;;51.60;20.17;;;14.00;99.90;;;;;;5058298;28;20496;-56
2021/03/03 10:50:58;;;;;;;;;;;14.10;99.90;;;;;;5059164;28;20485;-57
2021/03/03 10:53:24;;;;;;;46.70;20.52;;;14.30;99.90;;;;;;5053781;28;20352;-57
2021/03/03 10:55:50;;;;;;;39.10;19.30;;;14.40;99.90;;;;;;5059149;28;20056;-54
2021/03/03 10:58:17;;;;;;;45.13;19.77;;;14.40;99.90;;;;;;5056923;28;20059;-58
2021/03/03 11:01:00;;;;;;;51.25;20.63;;;14.60;99.90;;;;;;5056445;28;20053;-59
2021/03/03 11:03:28;;;;;;;51.67;20.42;;;14.70;99.90;;;;;;5053802;28;20036;-57
2021/03/03 11:05:58;;;;;;;38.55;18.92;;;14.90;99.90;;;;;;5060397;28;20066;-58
2021/03/03 11:08:25;;;;;;;41.15;17.98;;;15.00;99.90;;;;;;5058768;28;20029;-56
2021/03/03 11:11:01;;;;;;;46.00;20.63;;;15.20;99.90;;;;;;5063429;28;20033;-56
2021/03/03 11:13:27;;;;;;;52.97;21.55;;;15.30;99.90;;;;;;5058634;28;20552;-57
2021/03/03 11:15:52;;;;;;;39.22;20.67;;;15.30;99.90;;;;;;5063426;28;20107;-56
2021/03/03 11:18:18;;;;;;;45.30;21.25;;;15.40;99.90;;;;;;5059180;28;20424;-55
2021/03/03 11:20:43;;;;;;;39.83;19.63;;;15.30;99.90;;;;;;5056164;28;20074;-56
2021/03/03 11:23:09;;;;;;;57.53;20.63;;;15.40;99.90;;;;;;5052957;28;20163;-57
2021/03/03 11:25:35;;;;;;;46.90;20.40;;;15.40;99.90;;;;;;5062340;28;20062;-58
2021/03/03 11:28:00;;;;;;;44.47;21.30;;;15.60;99.90;;;;;;5060654;28;20056;-58
2021/03/03 11:30:26;;;;;;;51.05;22.50;;;15.80;99.90;;;;;;5063270;28;20496;-56
2021/03/03 11:32:52;;;;;;;52.50;21.42;;;15.80;99.90;;;;;;5059904;28;20115;-58
2021/03/03 11:35:19;;;;;;;53.97;22.35;;;15.90;99.90;;;;;;5061026;28;20454;-57
2021/03/03 11:37:44;;;;;;;59.42;23.67;;;15.90;99.90;;;;;;5051651;28;20056;-59
2021/03/03 11:40:12;;;;;;;60.38;23.27;;;16.00;99.90;;;;;;5055369;28;20476;-58
2021/03/03 11:42:38;;;;;;;48.95;20.88;;;16.10;99.90;;;;;;5050168;28;20108;-57
2021/03/03 11:45:06;;;;;;;49.38;22.35;;;16.30;99.90;;;;;;5057045;28;20036;-55
2021/03/03 11:47:31;;;;;;;56.90;22.70;;;16.30;99.90;;;;;;5051676;28;20512;-57
2021/03/03 11:49:57;;;;;;;54.88;22.17;;;16.50;99.90;;;;;;5061882;28;20029;-58
2021/03/03 11:52:22;;;;;;;47.20;21.67;;;16.50;99.90;;;;;;5056975;28;20044;-55
2021/03/03 11:54:48;;;;;;;45.70;21.65;;;16.50;99.90;;;;;;5059061;28;20036;-57
2021/03/03 11:57:13;;;;;;;45.92;23.33;;;16.60;99.90;;;;;;5054977;28;20110;-57
2021/03/03 11:59:39;;;;;;;49.97;21.77;;;16.80;99.90;;;;;;5059189;28;20443;-58
2021/03/03 12:02:05;;;;;;;54.17;22.13;;;17.00;99.90;;;;;;5055923;28;20486;-58
2021/03/03 12:04:31;;;;;;;45.90;21.73;;;17.10;99.90;;;;;;5059060;28;20033;-58
2021/03/03 12:06:56;;;;;;;56.08;20.70;;;17.10;99.90;;;;;;5058898;28;20029;-57
2021/03/03 12:09:22;;;;;;;52.22;21.48;;;17.30;99.90;;;;;;5059929;28;20020;-58
2021/03/03 12:11:48;;;;;;;53.35;22.15;;;17.40;99.90;;;;;;5060038;28;20031;-58
2021/03/03 12:14:13;;;;;;;50.45;20.38;;;17.30;99.90;;;;;;5058634;28;20048;-57
2021/03/03 12:16:39;;;;;;;52.95;23.20;;;17.40;99.90;;;;;;5055055;28;20025;-58
2021/03/03 12:19:04;;;;;;;52.88;21.88;;;17.30;99.90;;;;;;5057074;28;20032;-57
2021/03/03 12:21:30;;;;;;;57.35;21.80;;;17.40;99.90;;;;;;5059539;28;20032;-57
2021/03/03 12:23:57;;;;;;;52.53;22.95;;;17.50;99.90;;;;;;5057016;28;20029;-57
2021/03/03 12:26:23;;;;;;;49.72;21.75;;;17.70;99.90;;;;;;5051400;28;20024;-58
2021/03/03 12:28:48;;;;;;;56.40;23.42;;;17.80;99.90;;;;;;5052183;28;20033;-58
2021/03/03 12:31:14;;;;;;;54.13;20.95;;;17.90;99.90;;;;;;5054042;28;20055;-58
2021/03/03 12:33:40;;;;;;;48.30;20.58;;;18.00;99.90;;;;;;5054189;28;20025;-58
2021/03/03 12:36:07;;;;;;;59.67;21.27;;;17.90;99.90;;;;;;5054410;28;20032;-55
2021/03/03 12:38:32;;;;;;;50.30;20.15;;;18.00;99.90;;;;;;5053260;28;20029;-58
2021/03/03 12:40:58;;;;;;;48.20;21.15;;;18.20;99.90;;;;;;5059198;28;20065;-59
2021/03/03 12:43:24;;;;;;;48.60;20.30;;;18.20;99.90;;;;;;5054812;28;20025;-56